Time;durP1;ratioP1;P1;durP2;ratioP2;P2;SDS_P1;SDS_P2;PMS_P1;PMS_P2;Temp;Humidity;BMP_temperature;BMP_pressure;BME280_temperature;BME280_humidity;BME280_pressure;Samples;Min_cycle;Max_cycle;Signal;HPM_P1;HPM_P2
2024/04/07 00:01:59;;;;;;;3.90;2.90;;;;;;;13.50;100.00;96863.86;112379;1264;21780;-66
2024/04/07 00:04:27;;;;;;;4.20;2.70;;;;;;;13.49;100.00;96865.53;112419;1264;21867;-65
2024/04/07 00:06:55;;;;;;;4.30;3.00;;;;;;;13.50;100.00;96870.33;112400;1264;21813;-66
2024/04/07 00:09:23;;;;;;;3.90;3.00;;;;;;;13.53;100.00;96871.46;112398;1261;22226;-66
2024/04/07 00:11:51;;;;;;;4.50;3.20;;;;;;;13.55;100.00;96876.00;112394;1259;21763;-66
2024/04/07 00:14:19;;;;;;;5.30;3.60;;;;;;;13.56;100.00;96876.24;112400;1264;21831;-65
2024/04/07 00:16:47;;;;;;;4.40;3.10;;;;;;;13.57;100.00;96877.92;112400;1264;21779;-65
2024/04/07 00:19:15;;;;;;;3.20;2.50;;;;;;;13.56;100.00;96876.14;112396;1264;21880;-65
2024/04/07 00:21:43;;;;;;;3.10;2.50;;;;;;;13.52;100.00;96875.27;112384;1262;21784;-66
2024/04/07 00:24:11;;;;;;;4.40;2.80;;;;;;;13.46;100.00;96872.43;112404;1264;21917;-64
2024/04/07 00:26:39;;;;;;;4.20;2.80;;;;;;;13.46;100.00;96874.17;112376;1263;22524;-64
2024/04/07 00:29:07;;;;;;;3.10;2.30;;;;;;;13.45;100.00;96873.98;112403;1263;22225;-65
2024/04/07 00:31:35;;;;;;;3.40;2.70;;;;;;;13.40;100.00;96874.57;112413;1264;21833;-65
2024/04/07 00:34:03;;;;;;;4.30;2.80;;;;;;;13.38;100.00;96878.98;112403;1263;21925;-65
2024/04/07 00:36:31;;;;;;;4.10;2.50;;;;;;;13.32;100.00;96874.84;112416;1263;21772;-66
2024/04/07 00:38:59;;;;;;;3.50;2.70;;;;;;;13.25;100.00;96874.25;112398;1264;22350;-66
2024/04/07 00:41:28;;;;;;;4.70;2.60;;;;;;;13.21;100.00;96875.96;112414;1264;21812;-66
2024/04/07 00:43:56;;;;;;;3.30;2.70;;;;;;;13.18;100.00;96873.13;112404;1264;21785;-65
2024/04/07 00:46:25;;;;;;;3.10;2.20;;;;;;;13.11;100.00;96872.66;112419;1264;21875;-65
2024/04/07 00:48:53;;;;;;;4.10;2.20;;;;;;;13.07;100.00;96871.50;112359;1260;22115;-65
2024/04/07 00:51:22;;;;;;;5.20;3.20;;;;;;;13.06;100.00;96872.28;112404;1263;22171;-65
2024/04/07 00:53:50;;;;;;;4.60;2.80;;;;;;;13.03;100.00;96877.09;112378;1263;21822;-65
2024/04/07 00:56:20;;;;;;;4.60;3.00;;;;;;;13.02;100.00;96876.34;112431;1263;22214;-66
2024/04/07 00:58:48;;;;;;;3.70;2.70;;;;;;;12.99;100.00;96878.48;112371;1264;21810;-65
2024/04/07 01:01:17;;;;;;;4.90;3.50;;;;;;;12.96;100.00;96880.38;112386;1264;21804;-65
2024/04/07 01:03:44;;;;;;;5.00;3.00;;;;;;;12.90;100.00;96879.44;112330;1260;21835;-66
2024/04/07 01:06:13;;;;;;;5.80;3.90;;;;;;;12.86;100.00;96880.05;112391;1253;21837;-66
2024/04/07 01:08:41;;;;;;;6.00;3.20;;;;;;;12.79;100.00;96881.18;112373;1264;21911;-66
2024/04/07 01:11:09;;;;;;;4.30;3.40;;;;;;;12.72;100.00;96887.56;112390;1263;21734;-66
2024/04/07 01:13:37;;;;;;;5.00;3.70;;;;;;;12.67;100.00;96890.45;112350;1264;21781;-66
2024/04/07 01:16:05;;;;;;;6.70;4.10;;;;;;;12.61;100.00;96888.61;112393;1264;22782;-65
2024/04/07 01:18:33;;;;;;;5.50;3.70;;;;;;;12.55;100.00;96893.88;112337;1260;21918;-65
2024/04/07 01:21:02;;;;;;;5.00;3.70;;;;;;;12.52;100.00;96889.69;112417;1261;21877;-66
2024/04/07 01:23:30;;;;;;;5.40;3.20;;;;;;;12.50;100.00;96884.85;112357;1264;21915;-65
2024/04/07 01:25:58;;;;;;;5.30;4.30;;;;;;;12.46;100.00;96887.98;112136;1264;21795;-65
2024/04/07 01:28:26;;;;;;;5.30;3.70;;;;;;;12.39;100.00;96886.31;112392;1264;21817;-65
2024/04/07 01:30:54;;;;;;;4.30;3.50;;;;;;;12.31;100.00;96887.93;112406;1264;21864;-66
2024/04/07 01:33:22;;;;;;;5.10;3.50;;;;;;;12.25;100.00;96888.45;112371;1263;21838;-65
2024/04/07 01:35:50;;;;;;;5.60;3.70;;;;;;;12.22;100.00;96887.83;112401;1264;21787;-65
2024/04/07 01:38:18;;;;;;;6.10;3.80;;;;;;;12.18;100.00;96888.31;112387;1264;22041;-65
2024/04/07 01:40:47;;;;;;;6.10;3.20;;;;;;;12.15;100.00;96892.05;112404;1264;22215;-65
2024/04/07 01:43:15;;;;;;;4.90;3.20;;;;;;;12.16;100.00;96893.91;112377;1262;21785;-65
2024/04/07 01:45:43;;;;;;;6.90;3.90;;;;;;;12.18;100.00;96896.53;112360;1264;21943;-66
2024/04/07 01:48:11;;;;;;;5.60;3.70;;;;;;;12.19;100.00;96900.49;112283;1264;21917;-65
2024/04/07 01:50:40;;;;;;;5.70;4.30;;;;;;;12.19;100.00;96902.23;112402;1264;22226;-65
2024/04/07 01:53:08;;;;;;;5.60;4.20;;;;;;;12.18;100.00;96900.23;112385;1264;22465;-65
2024/04/07 01:55:37;;;;;;;4.50;3.40;;;;;;;12.17;100.00;96900.80;112412;1264;21978;-66
2024/04/07 01:58:04;;;;;;;5.10;3.60;;;;;;;12.20;100.00;96903.67;112357;1263;21922;-66
2024/04/07 02:00:33;;;;;;;5.30;3.80;;;;;;;12.22;100.00;96904.20;112382;1263;21859;-65
2024/04/07 02:03:01;;;;;;;6.10;3.90;;;;;;;12.25;100.00;96909.73;112385;1263;21770;-65
2024/04/07 02:05:29;;;;;;;5.20;4.20;;;;;;;12.27;100.00;96911.34;112404;1262;21882;-65
2024/04/07 02:07:57;;;;;;;6.90;5.20;;;;;;;12.27;100.00;96909.80;112377;1264;21769;-66
2024/04/07 02:10:25;;;;;;;7.30;6.00;;;;;;;12.24;100.00;96913.30;112463;1263;21813;-67
2024/04/07 02:12:53;;;;;;;6.50;4.70;;;;;;;12.19;100.00;96911.48;112364;1264;21799;-66
2024/04/07 02:15:21;;;;;;;6.20;5.00;;;;;;;12.08;100.00;96912.27;112261;1264;21807;-66
2024/04/07 02:17:48;;;;;;;8.60;5.70;;;;;;;11.97;100.00;96914.48;112334;1264;22289;-66
2024/04/07 02:20:16;;;;;;;8.80;5.00;;;;;;;11.86;100.00;96909.46;112403;1264;21755;-67
2024/04/07 02:22:44;;;;;;;5.90;4.70;;;;;;;11.77;100.00;96911.11;112371;1260;21809;-66
2024/04/07 02:25:12;;;;;;;5.70;4.30;;;;;;;11.67;100.00;96910.19;112414;1264;22234;-66
2024/04/07 02:27:40;;;;;;;5.00;4.20;;;;;;;11.61;100.00;96910.86;112370;1264;22221;-66
2024/04/07 02:30:09;;;;;;;5.50;4.90;;;;;;;11.59;100.00;96910.68;112402;1263;21979;-66
2024/04/07 02:32:37;;;;;;;7.20;5.50;;;;;;;11.56;100.00;96911.16;112354;1264;21914;-65
2024/04/07 02:35:05;;;;;;;7.90;6.10;;;;;;;11.53;100.00;96911.57;112402;1264;22321;-66
2024/04/07 02:37:32;;;;;;;10.80;6.20;;;;;;;11.49;100.00;96915.40;112333;1263;21802;-65
2024/04/07 02:40:00;;;;;;;9.10;6.80;;;;;;;11.45;100.00;96916.04;112367;1264;21783;-65
2024/04/07 02:42:28;;;;;;;6.90;5.70;;;;;;;11.45;100.00;96914.14;112340;1264;22346;-65
2024/04/07 02:50:29;;;;;;;6.50;5.20;;;;;;;11.42;100.00;96926.81;112396;1264;21774;-64
2024/04/07 02:52:57;;;;;;;6.40;5.60;;;;;;;11.36;100.00;96927.61;112377;1263;21903;-64
2024/04/07 02:55:25;;;;;;;7.20;4.60;;;;;;;11.31;100.00;96933.80;112393;1264;21786;-65
2024/04/07 02:57:54;;;;;;;6.00;5.00;;;;;;;11.32;100.00;96938.48;112278;1264;21888;-65
2024/04/07 03:00:21;;;;;;;5.50;4.70;;;;;;;11.35;100.00;96937.16;112397;1264;21906;-65
2024/04/07 03:02:49;;;;;;;8.00;5.60;;;;;;;11.38;100.00;96937.23;112365;1264;22028;-65
2024/04/07 03:05:17;;;;;;;7.70;6.00;;;;;;;11.37;100.00;96930.68;112456;1264;22316;-64
2024/04/07 03:07:50;;;;;;;8.40;5.90;;;;;;;11.33;100.00;96937.97;112391;1261;21909;-65
2024/04/07 03:10:18;;;;;;;6.90;6.00;;;;;;;11.29;100.00;96939.23;112421;1264;21822;-64
2024/04/07 03:12:46;;;;;;;9.00;6.60;;;;;;;11.26;100.00;96935.10;112367;1264;21771;-66
2024/04/07 03:15:14;;;;;;;9.50;6.80;;;;;;;11.24;100.00;96939.13;112393;1264;21810;-65
2024/04/07 03:17:42;;;;;;;10.10;6.60;;;;;;;11.21;100.00;96941.60;112355;1261;21891;-66
2024/04/07 03:20:10;;;;;;;7.80;6.30;;;;;;;11.18;100.00;96943.63;112393;1264;22287;-66
2024/04/07 03:22:38;;;;;;;8.90;6.30;;;;;;;11.15;100.00;96941.42;112346;1264;22291;-66
2024/04/07 03:25:06;;;;;;;8.20;6.20;;;;;;;11.11;100.00;96942.06;112418;1263;22365;-67
2024/04/07 03:27:34;;;;;;;7.30;5.90;;;;;;;11.07;100.00;96940.48;112365;1264;21917;-65
2024/04/07 03:30:02;;;;;;;6.80;5.20;;;;;;;10.98;100.00;96940.35;112399;1263;21783;-65
2024/04/07 03:32:30;;;;;;;6.20;4.20;;;;;;;10.91;100.00;96941.34;112339;1264;21797;-67
2024/04/07 03:34:58;;;;;;;5.20;4.30;;;;;;;10.84;100.00;96939.27;112397;1261;21792;-65
2024/04/07 03:37:26;;;;;;;7.80;5.40;;;;;;;10.81;100.00;96940.59;112381;1264;21777;-66
2024/04/07 03:39:54;;;;;;;6.60;5.00;;;;;;;10.79;100.00;96944.21;112400;1263;21799;-66
2024/04/07 03:42:22;;;;;;;7.60;5.40;;;;;;;10.78;100.00;96943.27;112355;1264;21816;-65
2024/04/07 03:44:50;;;;;;;7.70;5.20;;;;;;;10.77;100.00;96943.81;112371;1264;21888;-66
2024/04/07 03:47:18;;;;;;;8.10;5.60;;;;;;;10.77;100.00;96944.89;112388;1264;21914;-65
2024/04/07 03:49:46;;;;;;;6.60;5.80;;;;;;;10.75;100.00;96947.48;112400;1264;21885;-65
2024/04/07 03:52:15;;;;;;;9.10;6.50;;;;;;;10.74;100.00;96947.75;112368;1264;21840;-66
2024/04/07 03:54:42;;;;;;;8.00;6.20;;;;;;;10.71;100.00;96949.54;112426;1263;21885;-65
2024/04/07 03:57:10;;;;;;;9.50;6.70;;;;;;;10.68;100.00;96952.05;112355;1263;21953;-66
2024/04/07 03:59:39;;;;;;;8.20;6.60;;;;;;;10.65;100.00;96951.63;112399;1257;22322;-65
2024/04/07 04:02:07;;;;;;;9.90;7.70;;;;;;;10.61;100.00;96954.17;112398;1264;21841;-65
2024/04/07 04:04:36;;;;;;;5.10;4.60;;;;;;;10.56;100.00;96953.88;112402;1261;22234;-65
2024/04/07 04:07:04;;;;;;;6.90;5.10;;;;;;;10.51;100.00;96950.98;112364;1264;21886;-66
2024/04/07 04:09:32;;;;;;;9.30;6.70;;;;;;;10.44;100.00;96952.36;112387;1263;21766;-65
2024/04/07 04:12:03;;;;;;;7.50;6.00;;;;;;;10.41;100.00;96955.63;112366;1264;22988;-65
2024/04/07 04:14:31;;;;;;;8.20;6.00;;;;;;;10.41;100.00;96958.42;112377;1261;21798;-65
2024/04/07 04:16:59;;;;;;;9.80;6.80;;;;;;;10.42;100.00;96967.20;112249;1264;21856;-66
2024/04/07 04:19:27;;;;;;;7.80;6.90;;;;;;;10.41;100.00;96969.69;112404;1264;22290;-66
2024/04/07 04:21:55;;;;;;;10.40;8.40;;;;;;;10.39;100.00;96970.41;112367;1264;21813;-65
2024/04/07 04:24:23;;;;;;;10.30;8.40;;;;;;;10.36;100.00;96971.68;112320;1264;22355;-66
2024/04/07 04:26:51;;;;;;;11.80;8.30;;;;;;;10.35;100.00;96974.34;112390;1264;21924;-66
2024/04/07 04:29:19;;;;;;;12.70;9.90;;;;;;;10.39;100.00;96979.13;112384;1261;21873;-66
2024/04/07 04:31:47;;;;;;;11.50;9.00;;;;;;;10.41;100.00;96982.95;112395;1261;21940;-65
2024/04/07 04:34:15;;;;;;;10.20;7.70;;;;;;;10.42;100.00;96986.02;112434;1264;21831;-66
2024/04/07 04:36:43;;;;;;;8.30;7.20;;;;;;;10.42;100.00;96990.87;112379;1264;21825;-65
2024/04/07 04:39:11;;;;;;;6.80;6.10;;;;;;;10.46;100.00;96992.50;112372;1264;21930;-65
2024/04/07 04:41:39;;;;;;;11.00;8.50;;;;;;;10.43;100.00;96995.55;112329;1264;22555;-66
2024/04/07 04:44:07;;;;;;;7.00;5.40;;;;;;;10.32;100.00;96998.98;112410;1260;21911;-66
2024/04/07 04:46:35;;;;;;;8.00;5.50;;;;;;;10.20;100.00;97001.62;112378;1264;21841;-65
2024/04/07 04:49:04;;;;;;;8.90;8.00;;;;;;;9.98;100.00;97007.33;112245;1265;21850;-66
2024/04/07 04:51:32;;;;;;;10.60;7.50;;;;;;;9.75;100.00;97009.31;112390;1264;21909;-66
2024/04/07 04:54:00;;;;;;;5.20;4.50;;;;;;;9.62;100.00;97010.05;112383;1264;21800;-65
2024/04/07 04:56:28;;;;;;;6.30;4.00;;;;;;;9.58;100.00;97009.65;112366;1265;21739;-65
2024/04/07 04:58:57;;;;;;;7.30;5.30;;;;;;;9.63;100.00;97014.48;112079;1264;21800;-65
2024/04/07 05:01:27;;;;;;;7.40;4.80;;;;;;;9.69;100.00;97013.89;112394;1264;21786;-65
2024/04/07 05:03:56;;;;;;;8.00;6.60;;;;;;;9.71;100.00;97016.02;112319;1264;21803;-65
2024/04/07 05:06:24;;;;;;;9.00;5.40;;;;;;;9.77;100.00;97018.90;112403;1264;21730;-69
2024/04/07 05:08:52;;;;;;;10.40;6.60;;;;;;;9.85;100.00;97021.91;112340;1263;22306;-66
2024/04/07 05:11:20;;;;;;;8.90;7.20;;;;;;;9.93;100.00;97021.98;112389;1263;21911;-66
2024/04/07 05:13:48;;;;;;;11.80;7.80;;;;;;;9.97;100.00;97024.15;112339;1264;22303;-66
2024/04/07 05:16:17;;;;;;;8.40;7.20;;;;;;;9.98;100.00;97024.92;112364;1264;21981;-66
2024/04/07 05:18:45;;;;;;;12.90;7.90;;;;;;;9.97;100.00;97024.98;112367;1260;21773;-66
2024/04/07 05:21:14;;;;;;;6.20;5.50;;;;;;;10.01;100.00;97027.31;112424;1264;22041;-66
2024/04/07 05:23:44;;;;;;;6.20;5.60;;;;;;;10.10;100.00;97025.73;112372;1261;21868;-66
2024/04/07 05:26:14;;;;;;;6.30;5.40;;;;;;;10.24;100.00;97029.56;112144;1264;21854;-66
2024/04/07 05:28:42;;;;;;;;;;;;;;;10.40;100.00;97031.11;112139;1264;22334;-65
2024/04/07 05:31:13;;;;;;;7.00;5.60;;;;;;;10.58;100.00;97031.23;112405;1264;21781;-66
2024/04/07 05:33:43;;;;;;;8.40;6.90;;;;;;;10.74;100.00;97032.47;112359;1264;21923;-66
2024/04/07 05:36:11;;;;;;;8.90;7.40;;;;;;;10.84;100.00;97033.52;112408;1264;21750;-66
2024/04/07 05:38:41;;;;;;;9.70;6.80;;;;;;;10.93;100.00;97037.02;112348;1264;22003;-67
2024/04/07 05:41:09;;;;;;;9.30;7.50;;;;;;;11.00;100.00;97036.27;112413;1263;22367;-66
2024/04/07 05:43:38;;;;;;;8.90;7.60;;;;;;;11.07;100.00;97040.81;112354;1264;22264;-65
2024/04/07 05:46:08;;;;;;;9.00;7.30;;;;;;;11.16;100.00;97039.55;112384;1264;21851;-66
2024/04/07 05:48:36;;;;;;;;;;;;;;;11.27;100.00;97039.04;112381;1260;21905;-66
2024/04/07 05:51:12;;;;;;;8.60;6.50;;;;;;;11.38;100.00;97039.15;112442;1263;21847;-66
2024/04/07 05:53:40;;;;;;;10.90;6.70;;;;;;;11.51;100.00;97046.62;112160;1264;21898;-65
2024/04/07 05:56:13;;;;;;;9.50;7.30;;;;;;;11.64;100.00;97051.98;112391;1264;21851;-67
2024/04/07 05:58:41;;;;;;;10.70;7.70;;;;;;;11.74;100.00;97052.55;112377;1264;21833;-65
2024/04/07 06:01:09;;;;;;;6.70;5.60;;;;;;;11.86;100.00;97053.89;112389;1264;21835;-65
2024/04/07 06:03:37;;;;;;;6.70;5.30;;;;;;;12.01;100.00;97056.43;112383;1261;22239;-65
2024/04/07 06:06:05;;;;;;;7.00;5.60;;;;;;;12.16;100.00;97064.05;112384;1264;21898;-66
2024/04/07 06:08:33;;;;;;;9.30;6.90;;;;;;;12.28;100.00;97065.83;112351;1261;22464;-65
2024/04/07 06:11:04;;;;;;;10.00;7.20;;;;;;;12.37;100.00;97064.05;112370;1264;21957;-64
2024/04/07 06:13:32;;;;;;;10.30;6.90;;;;;;;12.42;100.00;97064.98;112353;1264;21908;-66
2024/04/07 06:16:00;;;;;;;9.10;7.20;;;;;;;12.49;100.00;97067.88;112401;1261;21918;-65
2024/04/07 06:18:29;;;;;;;7.40;4.90;;;;;;;12.57;100.00;97073.65;112382;1261;21762;-66
2024/04/07 06:20:57;;;;;;;11.90;7.20;;;;;;;12.39;100.00;97084.13;112382;1260;22226;-66
2024/04/07 06:23:26;;;;;;;9.70;7.50;;;;;;;12.27;100.00;97092.17;112365;1264;21897;-65
2024/04/07 06:25:54;;;;;;;7.90;6.30;;;;;;;12.32;100.00;97092.66;112223;1264;22212;-65
2024/04/07 06:28:22;;;;;;;6.50;5.80;;;;;;;12.38;100.00;97092.83;112370;1264;21838;-64
2024/04/07 06:30:50;;;;;;;5.40;4.80;;;;;;;12.45;100.00;97091.81;112213;1264;21949;-65
2024/04/07 06:33:18;;;;;;;6.30;5.70;;;;;;;12.62;100.00;97091.95;112371;1264;21940;-65
2024/04/07 06:35:46;;;;;;;7.60;6.80;;;;;;;13.16;100.00;97089.91;112130;1264;22206;-65
2024/04/07 06:38:13;;;;;;;7.90;6.50;;;;;;;14.05;100.00;97088.48;112398;1261;21976;-65
2024/04/07 06:40:41;;;;;;;7.60;6.60;;;;;;;15.12;100.00;97085.48;112383;1264;21872;-69
2024/04/07 06:43:09;;;;;;;9.10;7.70;;;;;;;16.28;100.00;97088.27;112362;1264;21743;-71
2024/04/07 06:45:37;;;;;;;9.30;7.60;;;;;;;17.37;100.00;97085.66;112156;1264;21819;-66
2024/04/07 06:48:06;;;;;;;8.10;6.90;;;;;;;18.36;100.00;97088.73;112374;1261;22208;-71
2024/04/07 06:50:34;;;;;;;8.30;7.40;;;;;;;19.42;99.91;97094.95;112404;1264;21829;-72
2024/04/07 06:53:03;;;;;;;8.60;6.80;;;;;;;20.53;93.21;97098.65;112122;1264;22266;-73
2024/04/07 06:55:31;;;;;;;7.70;6.90;;;;;;;21.51;85.86;97098.48;112415;1264;21772;-72
2024/04/07 06:57:59;;;;;;;8.00;7.20;;;;;;;22.37;79.99;97101.81;112198;1264;21857;-71
2024/04/07 07:00:27;;;;;;;8.80;7.90;;;;;;;23.11;77.60;97100.70;112403;1253;21889;-72
2024/04/07 07:02:55;;;;;;;7.90;7.10;;;;;;;23.66;71.13;97100.65;112353;1264;21841;-72
2024/04/07 07:05:23;;;;;;;9.90;8.50;;;;;;;24.25;77.78;97107.63;112350;1258;21765;-73
2024/04/07 07:07:51;;;;;;;8.90;8.10;;;;;;;24.88;69.74;97108.05;112352;1264;21925;-72
2024/04/07 07:10:19;;;;;;;8.30;7.50;;;;;;;25.50;61.19;97108.19;112049;1264;21916;-73
2024/04/07 07:12:47;;;;;;;8.10;7.30;;;;;;;26.09;60.66;97110.81;112356;1264;22260;-72
2024/04/07 07:15:15;;;;;;;8.30;7.50;;;;;;;26.60;57.01;97115.55;112363;1264;21738;-73
2024/04/07 07:17:43;;;;;;;9.10;8.20;;;;;;;27.06;59.41;97119.48;112095;1264;21915;-72
2024/04/07 07:20:11;;;;;;;9.30;8.30;;;;;;;27.29;52.99;97124.08;112395;1261;21821;-72
2024/04/07 07:22:39;;;;;;;8.60;7.80;;;;;;;27.34;48.73;97131.47;112069;1264;21767;-72
2024/04/07 07:25:07;;;;;;;9.40;8.40;;;;;;;27.40;53.11;97141.36;112257;1264;21835;-71
2024/04/07 07:27:35;;;;;;;9.00;8.10;;;;;;;27.60;52.00;97141.95;112337;1264;21922;-72
2024/04/07 07:30:04;;;;;;;9.00;8.10;;;;;;;28.05;53.65;97142.55;112370;1264;21916;-71
2024/04/07 07:32:32;;;;;;;9.30;8.40;;;;;;;28.49;48.11;97145.45;112358;1264;21773;-72
2024/04/07 07:35:00;;;;;;;8.70;7.90;;;;;;;28.83;48.69;97151.55;112369;1261;21791;-72
2024/04/07 07:37:28;;;;;;;10.20;8.70;;;;;;;29.23;49.08;97155.98;112341;1264;21885;-72
2024/04/07 07:39:56;;;;;;;9.40;8.60;;;;;;;29.57;48.23;97159.02;112400;1264;21871;-73
2024/04/07 07:42:24;;;;;;;10.40;9.30;;;;;;;29.63;44.32;97165.36;112180;1264;21738;-72
2024/04/07 07:44:52;;;;;;;10.20;9.20;;;;;;;29.74;44.95;97165.39;112372;1260;22284;-71
2024/04/07 07:47:20;;;;;;;13.10;10.70;;;;;;;29.48;44.41;97170.44;112182;1264;22028;-72
2024/04/07 07:49:48;;;;;;;10.40;9.40;;;;;;;29.05;44.73;97171.33;112400;1263;21921;-72
2024/04/07 07:52:17;;;;;;;10.70;9.60;;;;;;;29.03;44.25;97170.05;112363;1264;21878;-72
2024/04/07 07:54:45;;;;;;;12.20;10.60;;;;;;;29.27;44.68;97175.80;112392;1264;22307;-71
2024/04/07 07:57:13;;;;;;;11.70;9.90;;;;;;;28.53;45.11;97176.50;112349;1260;21816;-72
2024/04/07 07:59:41;;;;;;;12.50;10.00;;;;;;;27.25;47.08;97174.36;112390;1261;21882;-71
2024/04/07 08:02:09;;;;;;;14.40;11.40;;;;;;;25.94;50.03;97185.95;112204;1264;21758;-72
2024/04/07 08:04:38;;;;;;;12.20;9.30;;;;;;;24.57;53.76;97189.11;112379;1264;22351;-71
2024/04/07 08:07:06;;;;;;;11.10;9.60;;;;;;;23.66;57.14;97189.75;112109;1263;21745;-71
2024/04/07 08:09:34;;;;;;;13.80;10.30;;;;;;;22.70;60.17;97191.20;112378;1260;22269;-71
2024/04/07 08:12:02;;;;;;;15.30;11.70;;;;;;;21.94;63.15;97188.75;112146;1265;21815;-71
2024/04/07 08:14:30;;;;;;;13.80;10.30;;;;;;;21.51;64.44;97194.23;112384;1263;22323;-71
2024/04/07 08:16:58;;;;;;;14.50;11.00;;;;;;;21.55;64.51;97198.19;112369;1264;21927;-71
2024/04/07 08:19:26;;;;;;;11.10;9.90;;;;;;;22.51;62.06;97194.59;112387;1264;22227;-71
2024/04/07 08:21:54;;;;;;;10.20;8.50;;;;;;;23.71;58.32;97193.91;112349;1263;21902;-71
2024/04/07 08:24:23;;;;;;;8.30;7.50;;;;;;;24.86;55.53;97201.02;112410;1260;21801;-72
2024/04/07 08:26:51;;;;;;;8.40;7.50;;;;;;;25.78;51.77;97203.34;112363;1260;21828;-71
2024/04/07 08:29:19;;;;;;;7.30;6.60;;;;;;;26.62;48.28;97202.48;112251;1264;21825;-72
2024/04/07 08:31:48;;;;;;;6.60;5.90;;;;;;;27.43;46.14;97205.34;112146;1264;21879;-72
2024/04/07 08:34:16;;;;;;;7.10;5.90;;;;;;;27.99;44.75;97204.29;112426;1263;21902;-73
2024/04/07 08:36:44;;;;;;;6.80;4.70;;;;;;;28.51;42.64;97201.91;112393;1263;21926;-70
2024/04/07 08:39:12;;;;;;;5.60;4.50;;;;;;;28.98;39.83;97201.61;112405;1264;21916;-71
2024/04/07 08:41:43;;;;;;;4.60;3.70;;;;;;;29.45;39.93;97199.66;112070;1264;22464;-71
2024/04/07 08:44:13;;;;;;;5.30;4.80;;;;;;;29.96;41.97;97200.56;112130;1264;22346;-71
2024/04/07 08:46:42;;;;;;;6.80;6.10;;;;;;;30.34;40.53;97202.05;112320;1264;21767;-71
2024/04/07 08:49:13;;;;;;;6.20;5.20;;;;;;;30.67;39.29;97202.02;112396;1264;22240;-72
2024/04/07 08:51:41;;;;;;;6.70;5.10;;;;;;;31.24;36.66;97197.58;112115;1264;21900;-71
2024/04/07 08:54:12;;;;;;;5.60;5.00;;;;;;;31.80;36.25;97197.05;112222;1264;21914;-72
2024/04/07 08:56:42;;;;;;;5.50;5.00;;;;;;;32.40;38.15;97193.42;112096;1264;21964;-71
2024/04/07 08:59:13;;;;;;;5.70;5.20;;;;;;;32.92;37.39;97194.53;112161;1264;22326;-72
2024/04/07 09:01:45;;;;;;;5.70;4.90;;;;;;;33.30;36.98;97192.52;112295;1264;22492;-72
2024/04/07 09:04:13;;;;;;;4.90;4.40;;;;;;;33.41;33.31;97190.38;112160;1264;22000;-72
2024/04/07 09:06:41;;;;;;;4.30;3.90;;;;;;;33.82;32.93;97191.33;112374;1261;22568;-72
2024/04/07 09:09:09;;;;;;;4.20;3.60;;;;;;;34.11;32.59;97187.80;112234;1264;22287;-71
2024/04/07 09:11:38;;;;;;;4.30;3.10;;;;;;;34.11;31.36;97185.73;112391;1263;21858;-71
2024/04/07 09:14:06;;;;;;;;;;;;;;;34.35;29.35;97181.77;112412;1264;21894;-72
2024/04/07 09:16:34;;;;;;;5.30;3.20;;;;;;;34.47;29.68;97179.63;112371;1263;21889;-71
2024/04/07 09:19:02;;;;;;;3.50;2.90;;;;;;;34.62;29.97;97173.52;112388;1261;21874;-71
2024/04/07 09:21:30;;;;;;;6.50;3.60;;;;;;;34.83;30.04;97172.58;112433;1263;21853;-72
2024/04/07 09:23:59;;;;;;;3.90;3.30;;;;;;;34.96;29.49;97168.52;112381;1264;21907;-71
2024/04/07 09:26:26;;;;;;;3.70;3.40;;;;;;;35.10;29.84;97171.64;112377;1263;21889;-72
2024/04/07 09:28:54;;;;;;;4.70;3.40;;;;;;;35.30;30.78;97175.11;112144;1264;21866;-71
2024/04/07 09:31:22;;;;;;;4.20;3.20;;;;;;;35.54;31.45;97174.30;112398;1254;21933;-72
2024/04/07 09:33:50;;;;;;;5.10;3.60;;;;;;;35.36;28.85;97166.32;112393;1264;21932;-72
2024/04/07 09:36:21;;;;;;;3.50;2.70;;;;;;;34.86;27.37;97171.54;112218;1263;22277;-72
2024/04/07 09:38:50;;;;;;;15.10;9.70;;;;;;;34.82;28.31;97174.31;112368;1264;21792;-72
2024/04/07 09:41:21;;;;;;;3.50;2.90;;;;;;;34.85;29.17;97174.75;112234;1264;21843;-73
2024/04/07 09:43:53;;;;;;;4.50;3.40;;;;;;;34.67;28.14;97175.73;112414;1260;21817;-73
2024/04/07 09:46:22;;;;;;;3.10;2.70;;;;;;;34.67;28.76;97171.88;112294;1264;22221;-72
2024/04/07 09:48:51;;;;;;;1.90;1.50;;;;;;;33.89;26.00;97175.59;112395;1263;21809;-74
2024/04/07 09:51:21;;;;;;;2.20;1.60;;;;;;;33.31;24.07;97175.67;112404;1264;22397;-74
2024/04/07 09:54:03;;;;;;;1.30;1.20;;;;;;;33.27;23.58;97176.09;112367;1263;21954;-74
2024/04/07 09:56:32;;;;;;;2.10;1.30;;;;;;;33.46;24.88;97176.97;112392;1264;21752;-70
2024/04/07 09:59:01;;;;;;;2.40;1.10;;;;;;;33.41;24.25;97169.79;112408;1264;21807;-69
2024/04/07 10:01:29;;;;;;;2.30;1.40;;;;;;;33.60;24.65;97166.14;112127;1264;21755;-69
2024/04/07 10:03:57;;;;;;;5.10;2.00;;;;;;;33.70;24.34;97163.09;112141;1264;21804;-69
2024/04/07 10:06:26;;;;;;;;;;;;;;;33.56;24.21;97164.86;112417;1264;21895;-69
2024/04/07 10:09:00;;;;;;;1.80;1.20;;;;;;;33.44;23.38;97161.30;112191;1263;21989;-68
2024/04/07 10:11:29;;;;;;;2.30;1.10;;;;;;;33.65;25.20;97158.19;112115;1264;22327;-69
2024/04/07 10:13:57;;;;;;;;;;;;;;;33.23;23.90;97161.38;112383;1263;21899;-69
2024/04/07 10:16:27;;;;;;;2.40;1.50;;;;;;;32.88;23.96;97157.05;112405;1263;21819;-68
2024/04/07 10:18:57;;;;;;;4.70;4.00;;;;;;;33.40;25.00;97154.71;112102;1261;21806;-69
2024/04/07 10:21:25;;;;;;;3.30;1.70;;;;;;;33.99;24.49;97156.30;112258;1263;22176;-69
2024/04/07 10:23:54;;;;;;;1.70;1.30;;;;;;;34.42;23.57;97148.90;112274;1264;21866;-70
2024/04/07 10:26:22;;;;;;;2.10;1.40;;;;;;;34.55;22.69;97149.13;112417;1264;21790;-69
2024/04/07 10:28:56;;;;;;;1.70;1.30;;;;;;;34.71;22.56;97148.58;111877;1264;21781;-69
2024/04/07 10:31:32;;;;;;;2.50;1.40;;;;;;;34.73;22.72;97153.26;111423;1263;713178;-69
2024/04/07 10:34:01;;;;;;;2.00;1.50;;;;;;;34.55;22.24;97152.71;112237;1262;21871;-69
2024/04/07 10:36:35;;;;;;;2.20;1.40;;;;;;;34.56;22.33;97154.51;112234;1264;22339;-68
2024/04/07 10:39:03;;;;;;;1.70;1.30;;;;;;;34.51;21.82;97151.67;112122;1262;21843;-69
2024/04/07 10:41:33;;;;;;;1.90;1.40;;;;;;;34.58;23.44;97145.40;112412;1264;21890;-69
2024/04/07 10:44:02;;;;;;;1.90;0.90;;;;;;;34.38;22.50;97152.42;112390;1264;21764;-69
2024/04/07 10:46:31;;;;;;;2.10;1.50;;;;;;;34.19;22.48;97156.09;112201;1264;21853;-68
2024/04/07 10:48:59;;;;;;;3.50;1.90;;;;;;;33.81;22.59;97157.27;112096;1264;21825;-69
2024/04/07 10:51:27;;;;;;;;;;;;;;;33.79;22.86;97157.21;112159;1264;21911;-69
2024/04/07 10:54:07;;;;;;;2.10;1.00;;;;;;;33.87;22.76;97160.44;112090;1263;22228;-69
2024/04/07 10:56:35;;;;;;;3.40;2.50;;;;;;;33.32;22.91;97162.52;112398;1263;22697;-68
2024/04/07 10:59:03;;;;;;;2.60;1.80;;;;;;;33.32;22.71;97159.27;112159;1264;22297;-68
2024/04/07 11:01:32;;;;;;;3.30;2.30;;;;;;;33.33;22.48;97157.88;112239;1264;21909;-69
2024/04/07 11:04:00;;;;;;;;;;;;;;;33.18;22.42;97153.03;112136;1264;21917;-69
2024/04/07 11:06:28;;;;;;;2.30;1.40;;;;;;;33.50;22.86;97151.09;112383;1264;22240;-70
2024/04/07 11:08:57;;;;;;;2.30;1.30;;;;;;;33.92;22.26;97144.30;112377;1264;21773;-68
2024/04/07 11:11:25;;;;;;;;;;;;;;;33.79;22.23;97145.56;112278;1263;22221;-69
2024/04/07 11:13:55;;;;;;;2.50;1.50;;;;;;;33.82;22.21;97142.32;112370;1261;21719;-69
2024/04/07 11:16:24;;;;;;;2.70;1.70;;;;;;;33.78;22.62;97143.61;112407;1260;22325;-69
2024/04/07 11:18:56;;;;;;;5.80;3.90;;;;;;;33.12;21.56;97146.16;112106;1260;22701;-69
2024/04/07 11:21:26;;;;;;;2.40;1.40;;;;;;;31.86;22.18;97140.30;112140;1264;22209;-69
2024/04/07 11:23:55;;;;;;;1.70;1.20;;;;;;;31.87;23.37;97138.60;112120;1264;22300;-70
2024/04/07 11:26:23;;;;;;;2.40;1.20;;;;;;;32.07;23.03;97134.27;111883;1265;22209;-69
2024/04/07 11:28:58;;;;;;;3.60;2.40;;;;;;;32.41;22.83;97132.88;112312;1264;21819;-69
2024/04/07 11:31:26;;;;;;;1.80;1.60;;;;;;;32.51;22.88;97130.48;112253;1264;21757;-69
2024/04/07 11:33:54;;;;;;;3.70;2.00;;;;;;;32.73;22.94;97135.61;112220;1258;21791;-69